Time;durP1;ratioP1;P1;durP2;ratioP2;P2;SDS_P1;SDS_P2;PMS_P1;PMS_P2;Temp;Humidity;BMP_temperature;BMP_pressure;BME280_temperature;BME280_humidity;BME280_pressure;Samples;Min_cycle;Max_cycle;Signal;HPM_P1;HPM_P2
2023/04/16 00:02:00;;;;;;;3.35;1.23;;;;;;;1.61;55.96;100038.13;4866429;28;20511;-58
2023/04/16 00:04:31;;;;;;;1.88;1.30;;;;;;;1.61;56.78;100028.69;4866718;28;20050;-57
2023/04/16 00:07:01;;;;;;;1.55;1.05;;;;;;;1.69;56.27;100073.47;4869687;28;20064;-57
2023/04/16 00:09:32;;;;;;;2.65;1.30;;;;;;;1.79;55.46;100059.03;4865642;28;20053;-57
2023/04/16 00:12:05;;;;;;;3.75;1.45;;;;;;;1.87;55.89;100069.44;4869516;28;20667;-57
2023/04/16 00:14:35;;;;;;;2.38;1.50;;;;;;;1.90;55.60;100072.09;4867681;28;20088;-57
2023/04/16 00:17:05;;;;;;;2.67;1.50;;;;;;;1.86;55.93;100065.16;4873507;28;20377;-58
2023/04/16 00:19:36;;;;;;;3.75;1.58;;;;;;;1.79;56.31;100058.16;4871971;28;20362;-57
2023/04/16 00:22:07;;;;;;;6.63;1.48;;;;;;;1.83;56.87;100070.25;4879304;28;20063;-56
2023/04/16 00:24:38;;;;;;;6.72;1.70;;;;;;;1.90;56.44;100077.25;4877698;28;20175;-58
2023/04/16 00:27:10;;;;;;;3.03;1.50;;;;;;;1.82;55.89;100053.06;4873217;28;20058;-57
2023/04/16 00:29:40;;;;;;;6.15;1.70;;;;;;;1.84;56.24;100082.28;4872075;28;20055;-57
2023/04/16 00:32:11;;;;;;;2.35;1.38;;;;;;;1.76;56.27;100081.31;4874538;28;20419;-57
2023/04/16 00:34:41;;;;;;;3.38;1.67;;;;;;;1.77;56.26;100070.16;4870418;28;20045;-57
2023/04/16 00:37:12;;;;;;;4.88;1.55;;;;;;;1.81;56.90;100077.09;4868874;28;20137;-57
2023/04/16 00:39:43;;;;;;;2.38;1.45;;;;;;;1.78;57.58;100071.91;4867077;28;20080;-57
2023/04/16 00:42:15;;;;;;;4.45;2.08;;;;;;;1.70;57.84;100072.63;4871434;28;20847;-57
2023/04/16 00:44:46;;;;;;;4.03;1.60;;;;;;;1.72;58.00;100073.53;4872941;28;20043;-57
2023/04/16 00:47:17;;;;;;;4.15;1.55;;;;;;;1.78;58.02;100077.06;4872287;28;20042;-57
2023/04/16 00:49:48;;;;;;;5.13;1.55;;;;;;;1.70;56.06;100064.91;4877554;28;20692;-56
2023/04/16 00:52:18;;;;;;;5.03;1.65;;;;;;;1.67;57.36;100059.72;4873919;28;20446;-57
2023/04/16 00:54:49;;;;;;;7.35;1.70;;;;;;;1.63;57.48;100057.06;4872067;28;20057;-57
2023/04/16 00:57:22;;;;;;;2.70;1.65;;;;;;;1.41;58.09;100024.94;4869531;28;20595;-57
2023/04/16 00:59:53;;;;;;;3.60;1.50;;;;;;;1.63;56.37;100052.78;4871798;28;20593;-57
2023/04/16 01:02:24;;;;;;;3.80;1.80;;;;;;;1.54;57.41;100067.19;4868526;28;20060;-57
2023/04/16 01:04:55;;;;;;;7.15;1.63;;;;;;;1.44;58.11;100061.03;4867461;28;20049;-57
2023/04/16 01:07:26;;;;;;;2.40;1.42;;;;;;;1.17;55.88;100012.50;4871568;28;20053;-56
2023/04/16 01:09:56;;;;;;;2.42;1.50;;;;;;;1.41;56.54;100035.22;4871443;28;20158;-57
2023/04/16 01:12:28;;;;;;;2.60;1.60;;;;;;;1.37;58.42;100024.00;4880022;28;20190;-55
2023/04/16 01:14:59;;;;;;;3.47;1.70;;;;;;;1.46;58.14;100028.44;4878732;28;20053;-57
2023/04/16 01:17:30;;;;;;;2.22;1.30;;;;;;;1.44;58.56;100024.97;4873519;28;20061;-56
2023/04/16 01:20:01;;;;;;;4.60;1.67;;;;;;;1.43;58.22;100008.66;4873300;28;20049;-56
2023/04/16 01:22:33;;;;;;;6.40;2.13;;;;;;;1.40;57.90;100002.59;4869123;28;20056;-57
2023/04/16 01:25:03;;;;;;;8.32;1.80;;;;;;;1.31;57.34;99987.00;4871149;28;20127;-57
2023/04/16 01:27:36;;;;;;;4.88;1.65;;;;;;;1.25;58.37;99998.94;4872036;28;20062;-56
2023/04/16 01:30:08;;;;;;;3.47;1.85;;;;;;;1.30;58.63;99993.88;4871685;28;20062;-57
2023/04/16 01:32:39;;;;;;;3.95;1.20;;;;;;;1.20;58.80;100010.88;4872329;28;20153;-57
2023/04/16 01:35:10;;;;;;;3.70;1.70;;;;;;;1.08;59.91;100000.34;4870286;28;20535;-57
2023/04/16 01:37:43;;;;;;;3.58;1.50;;;;;;;1.08;60.53;99995.22;4873406;28;20081;-57
2023/04/16 01:40:13;;;;;;;1.42;1.30;;;;;;;0.95;60.50;100008.66;4871035;28;20060;-57
2023/04/16 01:42:44;;;;;;;4.63;1.67;;;;;;;0.96;60.67;100000.13;4870257;28;20510;-57
2023/04/16 01:45:14;;;;;;;3.63;1.58;;;;;;;1.00;60.32;100004.47;4869659;28;20069;-57
2023/04/16 01:47:45;;;;;;;3.95;1.60;;;;;;;0.94;61.10;99991.50;4871133;28;20045;-57
2023/04/16 01:50:16;;;;;;;2.85;1.38;;;;;;;1.01;61.82;99983.06;4871475;28;20103;-57
2023/04/16 01:52:48;;;;;;;6.50;1.75;;;;;;;0.91;61.73;99976.88;4869106;28;20401;-57
2023/04/16 01:55:19;;;;;;;4.85;1.60;;;;;;;0.83;61.90;99969.03;4872487;28;20892;-57
2023/04/16 01:57:49;;;;;;;9.90;2.40;;;;;;;0.88;62.39;99981.13;4870274;28;20493;-56
2023/04/16 02:00:20;;;;;;;2.35;1.48;;;;;;;0.85;62.39;99977.66;4871376;28;20656;-57
2023/04/16 02:02:50;;;;;;;3.78;1.50;;;;;;;0.84;62.14;99975.91;4865634;28;20127;-58
2023/04/16 02:05:21;;;;;;;5.57;1.60;;;;;;;0.74;62.69;99968.84;4872187;28;20193;-57
2023/04/16 02:07:53;;;;;;;4.97;1.35;;;;;;;0.75;63.62;99970.59;4869477;28;20444;-57
2023/04/16 02:10:24;;;;;;;3.00;1.05;;;;;;;0.62;64.14;99968.63;4870382;28;20053;-58
2023/04/16 02:12:55;;;;;;;20.13;2.13;;;;;;;0.48;65.61;99963.22;4870159;28;20057;-57
2023/04/16 02:15:25;;;;;;;4.07;2.22;;;;;;;0.41;66.33;99946.81;4866261;28;20056;-57
2023/04/16 02:17:56;;;;;;;8.23;2.00;;;;;;;0.35;68.40;99957.00;4869683;28;20155;-57
2023/04/16 02:20:27;;;;;;;6.03;1.70;;;;;;;0.33;69.14;99943.22;4865235;28;20561;-56
2023/04/16 02:23:00;;;;;;;6.82;2.08;;;;;;;0.25;69.69;99934.53;4870242;28;20461;-56
2023/04/16 02:25:30;;;;;;;3.05;1.50;;;;;;;0.13;71.65;99941.97;4865633;28;20407;-57
2023/04/16 02:28:01;;;;;;;8.38;1.80;;;;;;;-0.19;73.83;99898.50;4867677;28;20069;-57
2023/04/16 02:30:33;;;;;;;7.72;2.22;;;;;;;-0.08;75.21;99922.69;4869595;28;20499;-57
2023/04/16 02:33:06;;;;;;;4.00;1.60;;;;;;;-0.16;76.63;99933.66;4872371;28;20405;-57
2023/04/16 02:35:37;;;;;;;4.25;1.52;;;;;;;-0.32;77.45;99911.91;4867460;28;20058;-56
2023/04/16 02:38:10;;;;;;;7.38;2.17;;;;;;;-0.71;79.09;99854.59;4873204;28;20042;-56
2023/04/16 02:40:40;;;;;;;2.22;1.30;;;;;;;-0.39;80.56;99917.75;4872174;28;20049;-56
2023/04/16 02:43:19;;;;;;;4.50;1.42;;;;;;;-0.54;81.65;99905.44;4865989;28;20064;-55
2023/04/16 02:45:55;;;;;;;6.30;1.50;;;;;;;-0.56;82.95;99920.78;4858207;28;20362;-56
2023/04/16 02:48:36;;;;;;;5.20;1.58;;;;;;;-0.58;84.17;99909.63;4877558;28;20094;-56
2023/04/16 02:51:07;;;;;;;3.22;1.83;;;;;;;-0.61;84.79;99904.41;4869536;28;20522;-58
2023/04/16 02:53:39;;;;;;;6.90;1.75;;;;;;;-0.64;85.25;99909.50;4876338;28;20054;-56
2023/04/16 02:56:10;;;;;;;3.38;1.60;;;;;;;-0.64;85.60;99909.50;4871569;28;20063;-57
2023/04/16 02:58:40;;;;;;;4.75;1.67;;;;;;;-1.10;86.57;99826.31;4870384;28;20498;-57
2023/04/16 03:01:11;;;;;;;3.92;1.30;;;;;;;-0.69;87.55;99885.44;4869438;28;20153;-56
2023/04/16 03:03:42;;;;;;;5.80;1.80;;;;;;;-0.73;87.77;99891.31;4867189;28;20058;-57
2023/04/16 03:06:12;;;;;;;2.80;1.35;;;;;;;-0.92;87.97;99867.81;4869754;28;20084;-57
2023/04/16 03:08:45;;;;;;;2.58;1.40;;;;;;;-0.85;88.96;99867.94;4869662;28;20123;-57
2023/04/16 03:11:15;;;;;;;4.15;1.52;;;;;;;-0.89;89.44;99864.44;4870392;28;20104;-57
2023/04/16 03:13:46;;;;;;;4.38;1.50;;;;;;;-0.93;89.38;99860.91;4869595;28;20118;-57
2023/04/16 03:16:17;;;;;;;3.35;1.63;;;;;;;-0.93;90.71;99850.66;4869572;28;20042;-56
2023/04/16 03:18:47;;;;;;;4.95;1.67;;;;;;;-1.02;90.64;99829.06;4876262;28;20467;-57
2023/04/16 03:21:18;;;;;;;3.88;2.05;;;;;;;-1.15;89.85;99808.28;4872563;28;20077;-57
2023/04/16 03:23:52;;;;;;;2.55;1.42;;;;;;;-0.88;89.98;99818.28;4871076;28;20780;-56
2023/04/16 03:26:22;;;;;;;2.85;1.73;;;;;;;-0.91;90.42;99828.47;4868652;28;20077;-56
2023/04/16 03:28:54;;;;;;;3.55;1.45;;;;;;;-0.92;88.91;99806.25;4869227;28;20068;-58
2023/04/16 03:31:25;;;;;;;7.32;1.65;;;;;;;-0.88;89.40;99832.81;4864693;28;20132;-60
2023/04/16 03:33:56;;;;;;;3.28;1.30;;;;;;;-0.90;90.35;99807.16;4869566;28;20096;-58
2023/04/16 03:36:27;;;;;;;2.50;1.55;;;;;;;-0.94;91.34;99787.38;4864590;28;20164;-59
2023/04/16 03:39:00;;;;;;;3.85;1.67;;;;;;;-0.94;89.03;99792.53;4870878;28;20055;-57
2023/04/16 03:41:30;;;;;;;5.70;1.60;;;;;;;-0.89;90.31;99779.81;4871784;28;20072;-58
2023/04/16 03:44:01;;;;;;;1.35;1.25;;;;;;;-0.91;90.75;99755.81;4868958;28;20065;-57
2023/04/16 03:46:34;;;;;;;3.38;1.60;;;;;;;-0.88;90.95;99741.34;4868336;28;20059;-57
2023/04/16 03:49:05;;;;;;;2.00;1.50;;;;;;;-0.95;90.69;99724.13;4870248;28;20053;-58
2023/04/16 03:51:37;;;;;;;1.95;1.33;;;;;;;-0.85;91.30;99724.28;4871890;28;20406;-57
2023/04/16 03:54:09;;;;;;;2.22;1.42;;;;;;;-1.00;91.86;99689.81;4878295;28;20414;-57
2023/04/16 03:56:41;;;;;;;1.50;1.35;;;;;;;-1.08;92.10;99660.56;4874078;28;20049;-58
2023/04/16 03:59:12;;;;;;;3.45;1.30;;;;;;;-1.51;92.39;99585.34;4872122;28;20133;-58
2023/04/16 04:01:42;;;;;;;2.72;1.10;;;;;;;-0.81;92.10;99669.66;4874369;28;20175;-58
2023/04/16 04:04:13;;;;;;;4.03;1.45;;;;;;;-0.77;92.63;99686.84;4873208;28;20049;-58
2023/04/16 04:06:46;;;;;;;2.47;1.20;;;;;;;-0.88;92.88;99689.19;4872536;28;20455;-58
2023/04/16 04:09:18;;;;;;;3.22;1.58;;;;;;;-0.73;93.15;99662.97;4867924;28;20223;-57
2023/04/16 04:11:49;;;;;;;3.17;1.60;;;;;;;-0.75;92.45;99668.09;4871276;28;20477;-57
2023/04/16 04:14:20;;;;;;;2.38;1.20;;;;;;;-0.70;92.82;99657.91;4868576;28;20148;-57
2023/04/16 04:16:50;;;;;;;3.63;1.25;;;;;;;-0.73;92.43;99662.97;4874151;28;20534;-58
2023/04/16 04:19:21;;;;;;;1.70;1.10;;;;;;;-0.72;92.31;99639.06;4872497;28;20068;-57
2023/04/16 04:21:51;;;;;;;1.10;1.00;;;;;;;-0.67;91.43;99647.72;4871879;28;20071;-57
2023/04/16 04:24:24;;;;;;;1.60;1.20;;;;;;;-0.62;92.63;99650.34;4856726;28;20137;-57
2023/04/16 04:26:54;;;;;;;2.35;1.40;;;;;;;-0.59;93.14;99641.00;4871336;28;20054;-57
2023/04/16 04:29:25;;;;;;;1.95;1.17;;;;;;;-0.58;93.77;99640.16;4864742;28;20054;-57
2023/04/16 04:31:55;;;;;;;1.92;1.30;;;;;;;-0.58;93.67;99611.94;4870066;28;20061;-57
2023/04/16 04:34:26;;;;;;;3.05;1.20;;;;;;;-0.63;93.59;99598.16;4871361;28;20057;-58
2023/04/16 04:36:57;;;;;;;1.83;1.25;;;;;;;-0.66;93.87;99582.72;4871270;28;20064;-57
2023/04/16 04:39:29;;;;;;;2.70;1.00;;;;;;;-0.64;94.31;99581.06;4880802;28;20345;-58
2023/04/16 04:42:01;;;;;;;2.08;1.30;;;;;;;-0.71;93.92;99564.69;4872878;28;20050;-57
2023/04/16 04:44:32;;;;;;;6.38;1.27;;;;;;;-0.57;94.04;99551.25;4871967;28;20065;-58
2023/04/16 04:47:03;;;;;;;1.60;1.33;;;;;;;-0.56;93.75;99543.56;4873345;28;20365;-58
2023/04/16 04:49:33;;;;;;;1.20;0.93;;;;;;;-0.64;93.40;99528.88;4869954;28;20529;-58
2023/04/16 04:52:04;;;;;;;1.20;1.10;;;;;;;-0.67;93.73;99534.81;4871515;28;20508;-58
2023/04/16 04:54:40;;;;;;;2.55;1.08;;;;;;;-0.67;93.35;99516.88;4871515;28;20063;-57
2023/04/16 04:57:10;;;;;;;1.27;1.13;;;;;;;-0.68;93.51;99499.72;4864054;28;20079;-57
2023/04/16 04:59:41;;;;;;;1.25;1.02;;;;;;;-0.67;93.78;99489.50;4865818;28;20480;-58
2023/04/16 05:02:12;;;;;;;1.05;0.80;;;;;;;-0.65;93.45;99466.41;4867719;28;20060;-57
2023/04/16 05:04:42;;;;;;;1.65;1.00;;;;;;;-0.85;93.75;99431.88;4869586;28;20061;-57
2023/04/16 05:07:14;;;;;;;2.45;1.00;;;;;;;-0.68;94.13;99466.38;4871660;28;20056;-58
2023/04/16 05:09:47;;;;;;;3.25;1.45;;;;;;;-0.64;93.92;99457.03;4867572;28;20072;-58
2023/04/16 05:12:18;;;;;;;1.50;0.88;;;;;;;-0.66;93.92;99446.75;4867071;28;20092;-57
2023/04/16 05:14:48;;;;;;;1.33;1.17;;;;;;;-0.74;94.03;99450.91;4874662;28;20054;-57
2023/04/16 05:17:19;;;;;;;2.08;0.90;;;;;;;-0.83;93.96;99448.19;4872006;28;20049;-56
2023/04/16 05:19:49;;;;;;;3.17;1.30;;;;;;;-0.88;94.64;99433.56;4873096;28;20056;-57
2023/04/16 05:22:20;;;;;;;3.83;1.10;;;;;;;-0.79;94.77;99460.22;4872833;28;20045;-57
2023/04/16 05:24:53;;;;;;;1.23;1.13;;;;;;;-0.85;94.33;99442.16;4873971;28;20396;-57
2023/04/16 05:27:23;;;;;;;1.02;0.93;;;;;;;-0.84;94.44;99425.94;4871267;28;20566;-57
2023/04/16 05:29:54;;;;;;;2.30;1.30;;;;;;;-1.38;94.67;99327.63;4866835;28;20088;-57
2023/04/16 05:32:27;;;;;;;2.60;1.20;;;;;;;-0.98;95.03;99406.03;4871405;28;20661;-56
2023/04/16 05:34:57;;;;;;;2.33;1.23;;;;;;;-0.88;95.31;99422.44;4863998;28;20475;-56
2023/04/16 05:37:28;;;;;;;4.10;1.45;;;;;;;-0.84;95.08;99418.25;4873791;28;20061;-55
2023/04/16 05:40:00;;;;;;;3.70;1.38;;;;;;;-0.91;94.84;99428.38;4872815;28;20105;-58
2023/04/16 05:42:30;;;;;;;1.23;1.00;;;;;;;-1.49;94.62;99360.78;4872137;28;20057;-57
2023/04/16 05:45:02;;;;;;;1.40;1.13;;;;;;;-1.01;95.13;99421.38;4871129;28;20122;-57
2023/04/16 05:47:33;;;;;;;2.78;1.25;;;;;;;-1.03;95.18;99410.25;4870771;28;20045;-57
2023/04/16 05:50:04;;;;;;;1.88;1.27;;;;;;;-1.03;95.27;99412.81;4870956;28;20049;-57
2023/04/16 05:52:34;;;;;;;2.95;1.40;;;;;;;-1.08;95.10;99419.56;4868572;28;20613;-58
2023/04/16 05:55:07;;;;;;;2.00;1.20;;;;;;;-1.11;95.02;99409.25;4870721;28;20049;-57
2023/04/16 05:57:38;;;;;;;1.40;1.25;;;;;;;-1.10;95.35;99404.16;4873692;28;20068;-56
2023/04/16 06:00:09;;;;;;;1.92;1.38;;;;;;;-1.17;95.03;99391.22;4869232;28;21571;-55
2023/04/16 06:02:40;;;;;;;2.17;1.33;;;;;;;-1.11;95.38;99388.75;4870116;28;20112;-56
2023/04/16 06:05:11;;;;;;;2.15;1.35;;;;;;;-1.14;95.24;99399.81;4872616;28;20103;-56
2023/04/16 06:07:42;;;;;;;4.72;1.40;;;;;;;-1.19;95.02;99398.03;4869237;28;20068;-56
2023/04/16 06:10:14;;;;;;;2.00;1.23;;;;;;;-1.26;95.21;99403.88;4869668;28;20148;-57
2023/04/16 06:12:45;;;;;;;1.15;1.00;;;;;;;-1.23;95.12;99414.16;4870502;28;20060;-57
2023/04/16 06:15:15;;;;;;;2.30;1.48;;;;;;;-1.36;94.42;99383.19;4864360;28;20049;-56
2023/04/16 06:17:46;;;;;;;2.50;1.20;;;;;;;-1.28;94.67;99411.53;4871292;28;20464;-57
2023/04/16 06:20:17;;;;;;;2.97;1.48;;;;;;;-1.29;95.34;99414.09;4867214;28;20956;-56
2023/04/16 06:22:47;;;;;;;1.20;1.10;;;;;;;-1.37;95.67;99402.00;4877462;28;20133;-56
2023/04/16 06:25:19;;;;;;;1.88;1.40;;;;;;;-1.33;95.34;99418.28;4874031;28;21068;-56
2023/04/16 06:27:50;;;;;;;2.13;1.40;;;;;;;-1.37;94.66;99407.13;4870974;28;20140;-57
2023/04/16 06:30:21;;;;;;;1.27;1.17;;;;;;;-1.49;95.32;99381.28;4866306;28;20181;-56
2023/04/16 06:32:51;;;;;;;2.95;1.33;;;;;;;-1.42;95.58;99408.72;4870662;28;20095;-57
2023/04/16 06:35:22;;;;;;;1.65;1.02;;;;;;;-1.45;95.86;99393.28;4871566;28;20054;-57
2023/04/16 06:37:52;;;;;;;2.65;1.20;;;;;;;-1.47;95.47;99394.09;4869244;28;20111;-56
2023/04/16 06:40:25;;;;;;;1.67;1.17;;;;;;;-1.48;95.19;99380.41;4869862;28;20049;-57
2023/04/16 06:42:56;;;;;;;1.20;1.10;;;;;;;-1.51;95.66;99388.06;4869739;28;20045;-56
2023/04/16 06:45:27;;;;;;;1.45;1.08;;;;;;;-1.57;95.77;99372.59;4866818;28;20060;-57
2023/04/16 06:47:58;;;;;;;1.08;0.90;;;;;;;-1.71;94.74;99356.97;4875380;28;20058;-56
2023/04/16 06:50:29;;;;;;;1.10;1.00;;;;;;;-1.69;95.49;99367.25;4871609;28;20053;-56
2023/04/16 06:52:59;;;;;;;1.77;1.02;;;;;;;-1.70;95.54;99368.06;4872019;28;20051;-56
2023/04/16 06:55:32;;;;;;;1.90;1.23;;;;;;;-1.78;96.02;99353.41;4870366;28;20056;-56
2023/04/16 06:58:02;;;;;;;3.55;1.02;;;;;;;-1.72;96.15;99365.50;4870924;28;20119;-57
2023/04/16 07:00:33;;;;;;;2.92;0.90;;;;;;;-1.76;95.91;99351.75;4869658;28;20057;-56
2023/04/16 07:03:03;;;;;;;1.00;1.00;;;;;;;-1.74;96.01;99359.47;4870335;28;20054;-56
2023/04/16 07:05:34;;;;;;;2.38;1.10;;;;;;;-1.78;95.84;99338.03;4868359;28;20092;-57
2023/04/16 07:08:04;;;;;;;3.60;0.90;;;;;;;-1.78;96.40;99337.19;4869979;28;20064;-57
2023/04/16 07:10:37;;;;;;;1.35;1.00;;;;;;;-1.81;96.37;99334.59;4870900;28;20069;-57
2023/04/16 07:13:07;;;;;;;1.55;0.93;;;;;;;-1.80;96.79;99323.50;4866659;28;20100;-55
2023/04/16 07:15:38;;;;;;;1.10;0.90;;;;;;;-1.80;97.24;99316.69;4873666;28;20354;-56
2023/04/16 07:18:08;;;;;;;1.30;1.00;;;;;;;-1.84;97.00;99321.72;4872864;28;20041;-56
2023/04/16 07:20:39;;;;;;;1.23;1.10;;;;;;;-2.46;96.77;99210.53;4872995;28;20070;-56
2023/04/16 07:23:09;;;;;;;1.33;1.08;;;;;;;-1.88;96.64;99289.22;4872440;28;20084;-56
2023/04/16 07:25:42;;;;;;;1.10;1.00;;;;;;;-1.93;96.56;99285.72;4874417;28;20053;-56
2023/04/16 07:28:15;;;;;;;0.90;0.90;;;;;;;-1.92;97.53;99293.44;4875055;28;20054;-56
2023/04/16 07:30:46;;;;;;;2.95;1.10;;;;;;;-2.22;98.04;99224.59;4874246;28;20049;-54
2023/04/16 07:33:16;;;;;;;2.88;1.17;;;;;;;-1.95;98.24;99275.41;4873879;28;20053;-56
2023/04/16 07:35:47;;;;;;;1.13;1.00;;;;;;;-2.06;97.89;99253.91;4872395;28;20057;-55
2023/04/16 07:38:17;;;;;;;1.70;1.20;;;;;;;-2.00;98.63;99238.63;4880352;28;20055;-56
2023/04/16 07:40:50;;;;;;;1.38;1.10;;;;;;;-1.99;98.74;99240.38;4876685;28;20108;-55
2023/04/16 07:43:20;;;;;;;2.80;1.17;;;;;;;-2.05;97.89;99235.13;4873677;28;20053;-57
2023/04/16 07:45:51;;;;;;;4.70;1.60;;;;;;;-2.00;97.54;99238.63;4871480;28;20049;-56
2023/04/16 07:48:22;;;;;;;0.90;0.90;;;;;;;-2.01;97.94;99242.06;4869641;28;20061;-57
2023/04/16 07:50:53;;;;;;;1.20;1.10;;;;;;;-2.61;97.37;99136.94;4873616;28;20057;-56
2023/04/16 07:53:23;;;;;;;1.88;1.00;;;;;;;-2.34;98.49;99176.63;4873915;28;20068;-56
2023/04/16 07:55:55;;;;;;;0.90;0.90;;;;;;;-2.07;98.68;99216.31;4874200;28;20487;-56
2023/04/16 07:58:26;;;;;;;1.80;1.20;;;;;;;-2.61;99.01;99154.84;4872952;28;20058;-56
2023/04/16 08:00:57;;;;;;;2.35;1.48;;;;;;;-2.11;99.52;99235.03;4873221;28;20062;-56
2023/04/16 08:03:27;;;;;;;1.50;0.90;;;;;;;-2.14;98.69;99214.53;4880888;28;20057;-55
2023/04/16 08:05:58;;;;;;;3.22;1.00;;;;;;;-2.14;98.78;99194.91;4875560;28;20058;-56
2023/04/16 08:08:29;;;;;;;1.10;1.00;;;;;;;-2.15;99.75;99217.91;4873016;28;20045;-56
2023/04/16 08:11:01;;;;;;;1.70;1.10;;;;;;;-2.28;99.83;99192.09;4870815;28;20140;-55
2023/04/16 08:13:32;;;;;;;0.80;0.80;;;;;;;-2.38;100.00;99183.38;4873645;28;20132;-56
2023/04/16 08:16:02;;;;;;;1.75;1.00;;;;;;;-2.32;100.00;99195.44;4872076;28;20053;-56
2023/04/16 08:18:33;;;;;;;1.90;1.20;;;;;;;-2.26;99.62;99164.84;4872809;28;20447;-55
2023/04/16 08:21:03;;;;;;;1.33;1.00;;;;;;;-2.29;100.00;99210.84;4872479;28;20045;-56
2023/04/16 08:23:34;;;;;;;2.70;1.00;;;;;;;-2.31;100.00;99192.03;4871077;28;20064;-57
2023/04/16 08:26:06;;;;;;;2.47;1.00;;;;;;;-2.35;100.00;99185.13;4867761;28;20405;-57
2023/04/16 08:28:37;;;;;;;1.70;1.10;;;;;;;-2.36;100.00;99188.53;4871085;28;20049;-56
2023/04/16 08:31:07;;;;;;;2.40;1.30;;;;;;;-2.34;100.00;99180.91;4879277;28;20042;-56
2023/04/16 08:33:38;;;;;;;2.00;1.20;;;;;;;-2.33;100.00;99183.47;4873938;28;20426;-56
2023/04/16 08:36:09;;;;;;;1.95;1.05;;;;;;;-2.36;100.00;99178.31;4872317;28;20037;-56
2023/04/16 08:38:39;;;;;;;4.35;1.50;;;;;;;-2.39;100.00;99183.38;4873655;28;20404;-57
2023/04/16 08:41:14;;;;;;;2.38;1.30;;;;;;;-2.47;100.00;99165.34;4873462;28;20056;-57
2023/04/16 08:43:49;;;;;;;4.50;1.30;;;;;;;-2.44;100.00;99154.28;4869286;28;20488;-57
2023/04/16 08:46:23;;;;;;;1.63;1.25;;;;;;;-2.45;100.00;99157.66;4858034;28;20052;-56
2023/04/16 08:48:56;;;;;;;2.40;1.30;;;;;;;-2.44;100.00;99169.63;4873332;28;20055;-57
2023/04/16 08:51:30;;;;;;;2.10;1.20;;;;;;;-2.74;100.00;99108.56;4870170;28;21819;-56
2023/04/16 08:54:04;;;;;;;1.60;1.30;;;;;;;-2.54;100.00;99163.50;4861478;28;20050;-57
2023/04/16 08:56:38;;;;;;;4.65;1.35;;;;;;;-2.54;100.00;99183.09;4871703;28;20065;-57
2023/04/16 08:59:11;;;;;;;1.42;1.23;;;;;;;-2.77;100.00;99131.50;4862793;28;20053;-57
2023/04/16 09:01:44;;;;;;;1.05;1.00;;;;;;;-2.57;100.00;99157.44;4868201;28;20099;-56
2023/04/16 09:04:18;;;;;;;1.83;1.58;;;;;;;-2.57;100.00;99190.69;4872307;28;20071;-58
2023/04/16 09:06:50;;;;;;;0.90;0.90;;;;;;;-2.54;100.00;99170.31;4859756;28;20099;-56
2023/04/16 09:09:26;;;;;;;1.70;1.27;;;;;;;-2.59;100.00;99159.13;4871709;28;20524;-58
2023/04/16 09:11:58;;;;;;;1.52;1.00;;;;;;;-2.57;100.00;99177.91;4869993;28;20056;-55
2023/04/16 09:14:35;;;;;;;2.05;1.05;;;;;;;-2.65;100.00;99144.50;4872657;28;20107;-56
2023/04/16 09:17:06;;;;;;;3.83;1.35;;;;;;;-2.57;100.00;99204.38;4873149;28;20128;-56
2023/04/16 09:19:37;;;;;;;1.40;1.05;;;;;;;-2.58;100.00;99151.47;4867792;28;20076;-56
2023/04/16 09:22:11;;;;;;;2.33;1.20;;;;;;;-2.66;100.00;99159.00;4876729;28;20053;-56
2023/04/16 09:24:45;;;;;;;1.00;1.00;;;;;;;-2.59;100.00;99162.53;4871010;28;20431;-56
2023/04/16 09:27:19;;;;;;;2.22;1.27;;;;;;;-2.70;100.00;99126.53;4869771;28;20053;-56
2023/04/16 09:29:50;;;;;;;3.25;1.23;;;;;;;-2.60;100.00;99160.81;4860712;28;20057;-56
2023/04/16 09:32:27;;;;;;;2.33;1.15;;;;;;;-2.67;100.00;99136.84;4872587;28;20049;-57
2023/04/16 09:34:59;;;;;;;1.13;1.05;;;;;;;-2.59;100.00;99161.69;4862370;28;20042;-56
2023/04/16 09:37:32;;;;;;;4.05;1.30;;;;;;;-2.63;100.00;99148.81;4869133;28;20057;-55
2023/04/16 09:40:04;;;;;;;5.95;1.10;;;;;;;-2.64;100.00;99144.56;4870295;28;20140;-56
2023/04/16 09:42:37;;;;;;;3.67;1.13;;;;;;;-2.66;100.00;99147.91;4871271;28;20060;-57
2023/04/16 09:45:09;;;;;;;3.60;1.20;;;;;;;-2.65;100.00;99124.91;4865405;28;20447;-55
2023/04/16 09:47:48;;;;;;;1.75;1.40;;;;;;;-2.65;100.00;99139.41;4871012;28;20045;-55
2023/04/16 09:50:20;;;;;;;0.88;0.80;;;;;;;-2.65;100.00;99140.25;4862465;28;20573;-57
2023/04/16 09:52:51;;;;;;;1.30;1.02;;;;;;;-2.65;100.00;99127.47;4888594;28;20049;-56
2023/04/16 09:55:24;;;;;;;0.80;0.80;;;;;;;-2.82;100.00;99126.31;4871012;28;20057;-56
2023/04/16 09:58:02;;;;;;;1.17;1.08;;;;;;;-2.69;100.00;99112.94;4871089;28;20068;-56
2023/04/16 10:00:32;;;;;;;0.98;0.88;;;;;;;-2.59;100.00;99148.91;4860257;28;20080;-55
2023/04/16 10:03:07;;;;;;;1.73;1.20;;;;;;;-2.58;100.00;99114.81;4870438;28;20064;-56
2023/04/16 10:05:41;;;;;;;1.38;1.00;;;;;;;-2.60;100.00;99130.13;4865577;28;20201;-55
2023/04/16 10:08:14;;;;;;;2.00;1.23;;;;;;;-2.66;100.00;99123.19;4867597;28;20132;-56
2023/04/16 10:10:46;;;;;;;2.53;1.27;;;;;;;-2.59;100.00;99141.22;4869236;28;20061;-55
2023/04/16 10:13:19;;;;;;;2.00;1.42;;;;;;;-2.64;100.00;99152.22;4866858;28;20054;-56
2023/04/16 10:15:50;;;;;;;2.88;1.10;;;;;;;-2.79;100.00;99116.16;4871297;28;20776;-55
2023/04/16 10:18:24;;;;;;;1.55;1.08;;;;;;;-2.61;100.00;99147.16;4869556;28;20366;-56
2023/04/16 10:20:57;;;;;;;2.78;1.10;;;;;;;-2.59;100.00;99133.56;4869463;28;20057;-56
2023/04/16 10:23:30;;;;;;;1.52;1.30;;;;;;;-2.92;100.00;99088.59;4864368;28;20046;-56
2023/04/16 10:26:03;;;;;;;2.60;1.42;;;;;;;-2.61;100.00;99142.03;4868049;28;20049;-55
2023/04/16 10:28:36;;;;;;;2.78;1.10;;;;;;;-2.61;100.00;99085.78;4864741;28;20413;-56
2023/04/16 10:31:11;;;;;;;3.83;1.20;;;;;;;-2.62;100.00;99150.56;4869447;28;20095;-56
2023/04/16 10:33:48;;;;;;;2.28;1.40;;;;;;;-2.65;100.00;99135.13;4860301;28;20140;-56
2023/04/16 10:36:35;;;;;;;2.65;1.55;;;;;;;-2.68;100.00;99141.91;4861347;28;20100;-57
2023/04/16 10:39:13;;;;;;;3.22;1.55;;;;;;;-2.71;100.00;99124.81;4853398;28;20179;-56
2023/04/16 10:41:46;;;;;;;5.97;1.55;;;;;;;-2.66;100.00;99132.56;4859772;28;21026;-56
2023/04/16 10:44:20;;;;;;;1.38;1.25;;;;;;;-3.30;100.00;99055.53;4869099;28;20046;-56
2023/04/16 10:46:50;;;;;;;3.63;1.17;;;;;;;-2.70;100.00;99136.75;4868407;28;20828;-56
2023/04/16 10:49:25;;;;;;;6.57;1.58;;;;;;;-2.90;100.00;99097.19;4867518;28;20064;-56
2023/04/16 10:51:57;;;;;;;5.47;1.50;;;;;;;-2.71;100.00;99140.16;4870093;28;20045;-56
2023/04/16 10:54:33;;;;;;;3.80;1.35;;;;;;;-2.71;100.00;99129.94;4865323;28;20128;-56
2023/04/16 10:57:05;;;;;;;4.03;1.75;;;;;;;-2.78;100.00;99128.09;4869554;28;20054;-56
2023/04/16 10:59:38;;;;;;;4.10;1.40;;;;;;;-2.71;100.00;99149.53;4869348;28;20072;-55
2023/04/16 11:02:13;;;;;;;1.70;1.17;;;;;;;-2.72;100.00;99138.44;4857409;28;20073;-55
2023/04/16 11:04:45;;;;;;;4.45;1.60;;;;;;;-2.73;100.00;99146.94;4867412;28;20056;-56
2023/04/16 11:07:20;;;;;;;3.40;1.40;;;;;;;-2.75;100.00;99138.34;4869651;28;20144;-56
2023/04/16 11:09:58;;;;;;;1.63;1.20;;;;;;;-2.72;100.00;99153.78;4858569;28;20152;-56
2023/04/16 11:12:37;;;;;;;1.88;1.20;;;;;;;-2.73;100.00;99146.94;4860405;28;20046;-55
2023/04/16 11:15:11;;;;;;;1.30;1.20;;;;;;;-2.78;100.00;99115.31;4865513;28;20070;-55
2023/04/16 11:17:45;;;;;;;3.88;1.60;;;;;;;-2.77;100.00;99145.16;4869244;28;20112;-56
2023/04/16 11:20:18;;;;;;;5.50;1.52;;;;;;;-2.76;100.00;99146.03;4871300;28;20416;-56
2023/04/16 11:22:53;;;;;;;5.35;1.35;;;;;;;-2.78;100.00;99179.22;4858379;28;20046;-56
2023/04/16 11:25:26;;;;;;;1.52;1.30;;;;;;;-2.91;100.00;99146.59;4870134;28;20054;-56
2023/04/16 11:27:59;;;;;;;2.13;1.20;;;;;;;-2.73;100.00;99169.94;4867189;28;20058;-55
2023/04/16 11:30:32;;;;;;;1.63;0.98;;;;;;;-2.75;100.00;99179.28;4870905;28;20607;-56
2023/04/16 11:33:12;;;;;;;2.67;1.30;;;;;;;-2.71;100.00;99165.72;4870479;28;20099;-56
2023/04/16 11:35:45;;;;;;;1.75;1.00;;;;;;;-2.80;100.00;99150.19;4859412;28;20049;-56
2023/04/16 11:38:18;;;;;;;3.58;1.20;;;;;;;-2.73;100.00;99162.28;4868292;28;20132;-56
2023/04/16 11:40:52;;;;;;;1.00;1.00;;;;;;;-2.73;100.00;99167.38;4857241;28;20057;-56
2023/04/16 11:43:23;;;;;;;3.28;0.95;;;;;;;-2.87;100.00;99153.47;4869340;28;20053;-56
2023/04/16 11:46:01;;;;;;;0.93;0.88;;;;;;;-2.80;100.00;99147.63;4866604;28;20057;-56
2023/04/16 11:48:53;;;;;;;1.10;1.00;;;;;;;-2.76;100.00;99149.44;4817810;28;20071;-54
2023/04/16 11:51:24;;;;;;;1.90;1.30;;;;;;;-2.77;100.00;99165.63;4847628;28;20485;-53
2023/04/16 11:53:56;;;;;;;2.05;1.50;;;;;;;-2.78;100.00;99143.44;4847588;28;20049;-54